METAR Data
IDs: Format: Raw Decoded Include TAF

Data at: 1537 UTC 23 Aug 2019

KMGJ 231454Z AUTO 00000KT 10SM CLR 21/14 A3002 RMK AO2 SLP165 T02110144 53005